KSFO

San Francisco International Airport

San Francisco, California, USA
METAR KSFO 131056Z 00000KT 10SM FEW200 08/04 A3027 RMK AO2 SLP249 T00830039
Observed Flight Rules
Dec-13 @ 10:56 UTC (an hour ago) Visual Flight Rules
Visibility Clouds
10 miles
  • Few at 20,000' AGL
Temperatures Readings
Current 8°C / 46°F
Dewpoint 4°C / 39°F
Humidity 76%
Altimeter 30.27" Hg
Pressure 1024.9 hPa
Elevation 3
METAR KSFO 131056Z 00000KT 10SM FEW200 08/04 A3027 RMK AO2 SLP249 T00830039
Observed Flight Rules
Dec-13 @ 10:56 UTC
(an hour ago)
VFR
Clouds
  • Few at 20,000' AGL
Temperature Dewpoint
8°C / 46°F 4°C / 39°F
Humidity Altimeter Pressure
76% 30.27" Hg 1024.9 hPa